sensor_id;sensor_type;location;lat;lon;timestamp;temperature;humidity
18287;DHT22;9269;50.838;12.094;2024-03-22T00:01:08;12.90;43.90
18287;DHT22;9269;50.838;12.094;2024-03-22T00:03:36;12.90;43.70
18287;DHT22;9269;50.838;12.094;2024-03-22T00:06:02;12.90;43.80
18287;DHT22;9269;50.838;12.094;2024-03-22T00:08:30;12.80;43.80
18287;DHT22;9269;50.838;12.094;2024-03-22T00:10:56;12.80;43.90
18287;DHT22;9269;50.838;12.094;2024-03-22T00:13:24;12.70;43.70
18287;DHT22;9269;50.838;12.094;2024-03-22T00:15:55;12.70;43.90
18287;DHT22;9269;50.838;12.094;2024-03-22T00:21:39;12.70;43.80
18287;DHT22;9269;50.838;12.094;2024-03-22T00:24:06;12.70;43.50
18287;DHT22;9269;50.838;12.094;2024-03-22T00:26:33;12.70;44.70
18287;DHT22;9269;50.838;12.094;2024-03-22T00:29:00;12.60;45.00
18287;DHT22;9269;50.838;12.094;2024-03-22T00:31:28;12.60;44.70
18287;DHT22;9269;50.838;12.094;2024-03-22T00:33:56;12.70;44.70
18287;DHT22;9269;50.838;12.094;2024-03-22T00:36:23;12.60;45.00
18287;DHT22;9269;50.838;12.094;2024-03-22T00:38:50;12.50;44.80
18287;DHT22;9269;50.838;12.094;2024-03-22T00:41:17;12.50;45.10
18287;DHT22;9269;50.838;12.094;2024-03-22T00:43:44;12.50;45.10
18287;DHT22;9269;50.838;12.094;2024-03-22T00:46:11;12.40;44.90
18287;DHT22;9269;50.838;12.094;2024-03-22T00:48:40;12.40;45.10
18287;DHT22;9269;50.838;12.094;2024-03-22T00:51:06;12.40;45.20
18287;DHT22;9269;50.838;12.094;2024-03-22T00:53:33;12.30;45.10
18287;DHT22;9269;50.838;12.094;2024-03-22T00:56:00;12.30;45.10
18287;DHT22;9269;50.838;12.094;2024-03-22T00:58:27;12.30;45.00
18287;DHT22;9269;50.838;12.094;2024-03-22T01:00:54;12.30;44.90
18287;DHT22;9269;50.838;12.094;2024-03-22T01:03:22;12.20;45.10
18287;DHT22;9269;50.838;12.094;2024-03-22T01:05:50;12.30;45.00
18287;DHT22;9269;50.838;12.094;2024-03-22T01:08:17;12.10;45.20
18287;DHT22;9269;50.838;12.094;2024-03-22T01:10:43;12.20;45.20
18287;DHT22;9269;50.838;12.094;2024-03-22T01:13:11;12.10;45.00
18287;DHT22;9269;50.838;12.094;2024-03-22T01:15:37;12.10;45.20
18287;DHT22;9269;50.838;12.094;2024-03-22T01:18:05;12.10;45.30
18287;DHT22;9269;50.838;12.094;2024-03-22T01:20:31;12.00;45.00
18287;DHT22;9269;50.838;12.094;2024-03-22T01:23:00;11.90;45.10
18287;DHT22;9269;50.838;12.094;2024-03-22T01:25:27;11.90;45.50
18287;DHT22;9269;50.838;12.094;2024-03-22T01:27:55;11.90;45.40
18287;DHT22;9269;50.838;12.094;2024-03-22T01:30:22;11.90;45.50
18287;DHT22;9269;50.838;12.094;2024-03-22T01:32:50;11.90;45.30
18287;DHT22;9269;50.838;12.094;2024-03-22T01:35:17;11.70;45.40
18287;DHT22;9269;50.838;12.094;2024-03-22T01:37:44;12.00;45.30
18287;DHT22;9269;50.838;12.094;2024-03-22T01:40:13;11.90;45.20
18287;DHT22;9269;50.838;12.094;2024-03-22T01:42:41;11.90;45.40
18287;DHT22;9269;50.838;12.094;2024-03-22T01:45:08;11.90;45.50
18287;DHT22;9269;50.838;12.094;2024-03-22T01:47:35;11.80;45.60
18287;DHT22;9269;50.838;12.094;2024-03-22T01:50:02;11.80;45.40
18287;DHT22;9269;50.838;12.094;2024-03-22T01:52:29;11.70;45.70
18287;DHT22;9269;50.838;12.094;2024-03-22T01:54:56;11.70;46.10
18287;DHT22;9269;50.838;12.094;2024-03-22T01:57:25;11.80;46.10
18287;DHT22;9269;50.838;12.094;2024-03-22T01:59:54;11.70;45.70
18287;DHT22;9269;50.838;12.094;2024-03-22T02:02:23;11.70;45.90
18287;DHT22;9269;50.838;12.094;2024-03-22T02:04:50;11.60;45.80
18287;DHT22;9269;50.838;12.094;2024-03-22T02:07:17;11.60;45.80
18287;DHT22;9269;50.838;12.094;2024-03-22T02:09:44;11.70;46.30
18287;DHT22;9269;50.838;12.094;2024-03-22T02:12:12;11.60;46.20
18287;DHT22;9269;50.838;12.094;2024-03-22T02:14:41;11.70;46.20
18287;DHT22;9269;50.838;12.094;2024-03-22T02:17:08;11.80;46.30
18287;DHT22;9269;50.838;12.094;2024-03-22T02:19:34;11.70;46.10
18287;DHT22;9269;50.838;12.094;2024-03-22T02:22:02;11.70;46.20
18287;DHT22;9269;50.838;12.094;2024-03-22T02:24:30;11.70;46.10
18287;DHT22;9269;50.838;12.094;2024-03-22T02:26:57;11.80;45.70
18287;DHT22;9269;50.838;12.094;2024-03-22T02:29:24;11.60;46.20
18287;DHT22;9269;50.838;12.094;2024-03-22T02:31:51;11.60;46.20
18287;DHT22;9269;50.838;12.094;2024-03-22T02:34:17;11.60;46.50
18287;DHT22;9269;50.838;12.094;2024-03-22T02:36:45;11.50;46.50
18287;DHT22;9269;50.838;12.094;2024-03-22T02:39:11;11.70;46.30
18287;DHT22;9269;50.838;12.094;2024-03-22T02:41:40;11.60;46.40
18287;DHT22;9269;50.838;12.094;2024-03-22T02:44:07;11.60;46.30
18287;DHT22;9269;50.838;12.094;2024-03-22T02:46:34;11.40;46.30
18287;DHT22;9269;50.838;12.094;2024-03-22T02:49:01;11.50;46.20
18287;DHT22;9269;50.838;12.094;2024-03-22T02:51:28;11.40;46.20
18287;DHT22;9269;50.838;12.094;2024-03-22T02:53:55;11.40;46.20
18287;DHT22;9269;50.838;12.094;2024-03-22T02:56:22;11.20;45.90
18287;DHT22;9269;50.838;12.094;2024-03-22T02:58:50;11.50;46.20
18287;DHT22;9269;50.838;12.094;2024-03-22T03:01:17;11.30;46.30
18287;DHT22;9269;50.838;12.094;2024-03-22T03:03:44;11.30;46.40
18287;DHT22;9269;50.838;12.094;2024-03-22T03:06:12;11.30;46.50
18287;DHT22;9269;50.838;12.094;2024-03-22T03:08:39;11.30;46.60
18287;DHT22;9269;50.838;12.094;2024-03-22T03:11:07;11.20;46.40
18287;DHT22;9269;50.838;12.094;2024-03-22T03:13:33;11.40;46.50
18287;DHT22;9269;50.838;12.094;2024-03-22T03:16:02;11.30;46.30
18287;DHT22;9269;50.838;12.094;2024-03-22T03:18:29;11.20;46.60
18287;DHT22;9269;50.838;12.094;2024-03-22T03:20:56;11.30;46.70
18287;DHT22;9269;50.838;12.094;2024-03-22T03:23:22;11.30;46.50
18287;DHT22;9269;50.838;12.094;2024-03-22T03:25:49;11.20;47.00
18287;DHT22;9269;50.838;12.094;2024-03-22T03:28:16;11.20;46.40
18287;DHT22;9269;50.838;12.094;2024-03-22T03:30:44;11.20;46.70
18287;DHT22;9269;50.838;12.094;2024-03-22T03:33:11;11.30;46.60
18287;DHT22;9269;50.838;12.094;2024-03-22T03:35:39;11.30;46.60
18287;DHT22;9269;50.838;12.094;2024-03-22T03:38:05;11.30;46.50
18287;DHT22;9269;50.838;12.094;2024-03-22T03:40:35;11.40;46.80
18287;DHT22;9269;50.838;12.094;2024-03-22T03:43:01;11.20;46.70
18287;DHT22;9269;50.838;12.094;2024-03-22T03:45:28;11.30;46.40
18287;DHT22;9269;50.838;12.094;2024-03-22T03:47:55;11.30;46.80
18287;DHT22;9269;50.838;12.094;2024-03-22T03:50:24;11.30;46.50
18287;DHT22;9269;50.838;12.094;2024-03-22T03:52:51;11.20;46.70
18287;DHT22;9269;50.838;12.094;2024-03-22T03:55:18;11.30;46.50
18287;DHT22;9269;50.838;12.094;2024-03-22T03:57:45;11.30;46.60
18287;DHT22;9269;50.838;12.094;2024-03-22T04:00:13;11.30;46.40
18287;DHT22;9269;50.838;12.094;2024-03-22T04:02:39;11.30;46.60
18287;DHT22;9269;50.838;12.094;2024-03-22T04:05:07;11.30;47.00
18287;DHT22;9269;50.838;12.094;2024-03-22T04:07:35;11.40;47.00
18287;DHT22;9269;50.838;12.094;2024-03-22T04:10:03;11.40;46.70
18287;DHT22;9269;50.838;12.094;2024-03-22T04:12:30;11.40;46.60
18287;DHT22;9269;50.838;12.094;2024-03-22T04:14:57;11.30;46.80
18287;DHT22;9269;50.838;12.094;2024-03-22T04:17:24;11.40;46.40
18287;DHT22;9269;50.838;12.094;2024-03-22T04:19:51;11.40;46.90
18287;DHT22;9269;50.838;12.094;2024-03-22T04:22:18;11.30;46.60
18287;DHT22;9269;50.838;12.094;2024-03-22T04:24:47;11.40;46.70
18287;DHT22;9269;50.838;12.094;2024-03-22T04:27:13;11.40;46.70
18287;DHT22;9269;50.838;12.094;2024-03-22T04:29:41;11.40;46.70
18287;DHT22;9269;50.838;12.094;2024-03-22T04:32:08;11.30;46.80
18287;DHT22;9269;50.838;12.094;2024-03-22T04:34:35;11.30;47.00
18287;DHT22;9269;50.838;12.094;2024-03-22T04:37:02;11.50;46.80
18287;DHT22;9269;50.838;12.094;2024-03-22T04:39:29;11.40;46.60
18287;DHT22;9269;50.838;12.094;2024-03-22T04:41:59;11.40;46.70
18287;DHT22;9269;50.838;12.094;2024-03-22T04:44:26;11.20;46.80
18287;DHT22;9269;50.838;12.094;2024-03-22T04:46:54;11.30;46.50
18287;DHT22;9269;50.838;12.094;2024-03-22T04:49:20;11.30;46.90
18287;DHT22;9269;50.838;12.094;2024-03-22T04:51:48;11.30;46.70
18287;DHT22;9269;50.838;12.094;2024-03-22T04:54:15;11.30;46.70
18287;DHT22;9269;50.838;12.094;2024-03-22T04:56:42;11.30;46.70
18287;DHT22;9269;50.838;12.094;2024-03-22T04:59:10;11.20;46.90
18287;DHT22;9269;50.838;12.094;2024-03-22T05:01:38;11.20;47.00
18287;DHT22;9269;50.838;12.094;2024-03-22T05:04:04;11.10;47.00
18287;DHT22;9269;50.838;12.094;2024-03-22T05:06:32;11.10;47.20
18287;DHT22;9269;50.838;12.094;2024-03-22T05:08:58;11.10;47.00
18287;DHT22;9269;50.838;12.094;2024-03-22T05:11:26;11.10;47.20
18287;DHT22;9269;50.838;12.094;2024-03-22T05:13:52;11.00;47.30
18287;DHT22;9269;50.838;12.094;2024-03-22T05:16:21;11.10;47.10
18287;DHT22;9269;50.838;12.094;2024-03-22T05:18:49;11.20;47.20
18287;DHT22;9269;50.838;12.094;2024-03-22T05:21:17;11.20;47.10
18287;DHT22;9269;50.838;12.094;2024-03-22T05:23:43;11.30;47.40
18287;DHT22;9269;50.838;12.094;2024-03-22T05:26:10;11.20;47.40
18287;DHT22;9269;50.838;12.094;2024-03-22T05:28:37;11.20;47.30
18287;DHT22;9269;50.838;12.094;2024-03-22T05:31:04;11.20;47.20
18287;DHT22;9269;50.838;12.094;2024-03-22T05:33:32;11.30;47.10
18287;DHT22;9269;50.838;12.094;2024-03-22T05:36:00;11.30;47.50
18287;DHT22;9269;50.838;12.094;2024-03-22T05:38:26;11.30;47.20
18287;DHT22;9269;50.838;12.094;2024-03-22T05:40:53;11.30;47.40
18287;DHT22;9269;50.838;12.094;2024-03-22T05:43:20;11.40;47.50
18287;DHT22;9269;50.838;12.094;2024-03-22T05:45:48;11.30;47.00
18287;DHT22;9269;50.838;12.094;2024-03-22T05:48:14;11.30;47.70
18287;DHT22;9269;50.838;12.094;2024-03-22T05:50:43;11.30;47.80
18287;DHT22;9269;50.838;12.094;2024-03-22T05:53:10;11.30;47.50
18287;DHT22;9269;50.838;12.094;2024-03-22T05:55:37;11.40;47.70
18287;DHT22;9269;50.838;12.094;2024-03-22T05:58:04;11.30;47.90
18287;DHT22;9269;50.838;12.094;2024-03-22T06:00:31;11.50;47.60
18287;DHT22;9269;50.838;12.094;2024-03-22T06:02:59;11.40;47.50
18287;DHT22;9269;50.838;12.094;2024-03-22T06:05:26;11.50;47.40
18287;DHT22;9269;50.838;12.094;2024-03-22T06:07:54;11.50;47.40
18287;DHT22;9269;50.838;12.094;2024-03-22T06:10:22;11.50;48.20
18287;DHT22;9269;50.838;12.094;2024-03-22T06:12:48;11.50;47.90
18287;DHT22;9269;50.838;12.094;2024-03-22T06:15:16;11.50;47.70
18287;DHT22;9269;50.838;12.094;2024-03-22T06:17:43;11.50;47.70
18287;DHT22;9269;50.838;12.094;2024-03-22T06:20:12;11.60;47.90
18287;DHT22;9269;50.838;12.094;2024-03-22T06:22:39;11.50;47.70
18287;DHT22;9269;50.838;12.094;2024-03-22T06:25:08;11.70;47.90
18287;DHT22;9269;50.838;12.094;2024-03-22T06:27:34;11.70;47.80
18287;DHT22;9269;50.838;12.094;2024-03-22T06:30:02;11.80;48.20
18287;DHT22;9269;50.838;12.094;2024-03-22T06:32:29;11.80;47.80
18287;DHT22;9269;50.838;12.094;2024-03-22T06:34:57;11.80;48.10
18287;DHT22;9269;50.838;12.094;2024-03-22T06:37:23;12.00;47.70
18287;DHT22;9269;50.838;12.094;2024-03-22T06:39:50;12.10;48.00
18287;DHT22;9269;50.838;12.094;2024-03-22T06:42:18;12.20;47.50
18287;DHT22;9269;50.838;12.094;2024-03-22T06:44:46;12.20;47.90
18287;DHT22;9269;50.838;12.094;2024-03-22T06:47:12;12.20;47.80
18287;DHT22;9269;50.838;12.094;2024-03-22T06:49:40;12.30;48.00
18287;DHT22;9269;50.838;12.094;2024-03-22T06:52:07;12.30;48.10
18287;DHT22;9269;50.838;12.094;2024-03-22T06:54:34;12.40;47.80
18287;DHT22;9269;50.838;12.094;2024-03-22T06:57:02;12.40;48.10
18287;DHT22;9269;50.838;12.094;2024-03-22T06:59:31;12.50;48.00
18287;DHT22;9269;50.838;12.094;2024-03-22T07:01:57;12.60;48.10
18287;DHT22;9269;50.838;12.094;2024-03-22T07:04:25;12.60;48.10
18287;DHT22;9269;50.838;12.094;2024-03-22T07:06:51;12.60;48.10
18287;DHT22;9269;50.838;12.094;2024-03-22T07:09:19;12.70;48.10
18287;DHT22;9269;50.838;12.094;2024-03-22T07:11:45;12.70;46.60
18287;DHT22;9269;50.838;12.094;2024-03-22T07:14:14;12.70;47.80
18287;DHT22;9269;50.838;12.094;2024-03-22T07:16:42;12.70;46.60
18287;DHT22;9269;50.838;12.094;2024-03-22T07:19:10;12.80;46.50
18287;DHT22;9269;50.838;12.094;2024-03-22T07:21:36;12.90;46.20
18287;DHT22;9269;50.838;12.094;2024-03-22T07:24:05;12.90;46.80
18287;DHT22;9269;50.838;12.094;2024-03-22T07:26:31;13.00;46.00
18287;DHT22;9269;50.838;12.094;2024-03-22T07:28:59;13.10;46.50
18287;DHT22;9269;50.838;12.094;2024-03-22T07:31:25;13.30;46.30
18287;DHT22;9269;50.838;12.094;2024-03-22T07:33:54;13.40;46.40
18287;DHT22;9269;50.838;12.094;2024-03-22T07:36:22;13.40;46.20
18287;DHT22;9269;50.838;12.094;2024-03-22T07:38:50;13.40;46.20
18287;DHT22;9269;50.838;12.094;2024-03-22T07:41:16;13.40;46.10
18287;DHT22;9269;50.838;12.094;2024-03-22T07:43:43;13.50;45.90
18287;DHT22;9269;50.838;12.094;2024-03-22T07:46:10;13.60;46.10
18287;DHT22;9269;50.838;12.094;2024-03-22T07:48:38;13.60;46.40
18287;DHT22;9269;50.838;12.094;2024-03-22T07:51:05;13.60;46.20
18287;DHT22;9269;50.838;12.094;2024-03-22T07:53:33;13.70;46.00
18287;DHT22;9269;50.838;12.094;2024-03-22T07:55:59;13.60;46.20
18287;DHT22;9269;50.838;12.094;2024-03-22T07:58:27;13.60;45.90
18287;DHT22;9269;50.838;12.094;2024-03-22T08:00:54;13.70;45.80
18287;DHT22;9269;50.838;12.094;2024-03-22T08:03:22;13.70;45.80
18287;DHT22;9269;50.838;12.094;2024-03-22T08:05:50;13.70;46.00
18287;DHT22;9269;50.838;12.094;2024-03-22T08:08:19;13.60;45.80
18287;DHT22;9269;50.838;12.094;2024-03-22T08:10:46;13.60;45.80
18287;DHT22;9269;50.838;12.094;2024-03-22T08:13:14;13.50;45.70
18287;DHT22;9269;50.838;12.094;2024-03-22T08:15:40;13.70;45.80
18287;DHT22;9269;50.838;12.094;2024-03-22T08:18:10;13.60;45.60
18287;DHT22;9269;50.838;12.094;2024-03-22T08:20:36;13.60;45.70
18287;DHT22;9269;50.838;12.094;2024-03-22T08:23:05;13.50;45.30
18287;DHT22;9269;50.838;12.094;2024-03-22T08:25:33;13.50;45.30
18287;DHT22;9269;50.838;12.094;2024-03-22T08:28:01;13.60;45.40
18287;DHT22;9269;50.838;12.094;2024-03-22T08:30:27;13.60;45.30
18287;DHT22;9269;50.838;12.094;2024-03-22T08:32:55;13.70;45.20
18287;DHT22;9269;50.838;12.094;2024-03-22T08:35:22;13.70;45.30
18287;DHT22;9269;50.838;12.094;2024-03-22T08:37:49;13.70;45.30
18287;DHT22;9269;50.838;12.094;2024-03-22T08:40:16;13.80;45.10
18287;DHT22;9269;50.838;12.094;2024-03-22T08:42:44;13.90;45.20
18287;DHT22;9269;50.838;12.094;2024-03-22T08:45:11;13.80;45.00
18287;DHT22;9269;50.838;12.094;2024-03-22T08:47:38;14.00;45.10
18287;DHT22;9269;50.838;12.094;2024-03-22T08:50:07;14.20;45.30
18287;DHT22;9269;50.838;12.094;2024-03-22T08:52:34;14.20;45.00
18287;DHT22;9269;50.838;12.094;2024-03-22T08:55:01;14.30;45.10
18287;DHT22;9269;50.838;12.094;2024-03-22T08:57:31;14.50;45.00
18287;DHT22;9269;50.838;12.094;2024-03-22T08:59:58;14.60;45.30
18287;DHT22;9269;50.838;12.094;2024-03-22T09:02:27;14.90;45.00
18287;DHT22;9269;50.838;12.094;2024-03-22T09:04:54;15.00;44.80
18287;DHT22;9269;50.838;12.094;2024-03-22T09:07:22;15.10;44.60
18287;DHT22;9269;50.838;12.094;2024-03-22T09:09:50;15.20;44.50
18287;DHT22;9269;50.838;12.094;2024-03-22T09:12:18;15.40;44.30
18287;DHT22;9269;50.838;12.094;2024-03-22T09:14:45;15.60;42.80
18287;DHT22;9269;50.838;12.094;2024-03-22T09:17:14;15.70;42.70
18287;DHT22;9269;50.838;12.094;2024-03-22T09:19:40;16.00;42.10
18287;DHT22;9269;50.838;12.094;2024-03-22T09:22:07;16.20;42.20
18287;DHT22;9269;50.838;12.094;2024-03-22T09:24:34;16.30;41.80
18287;DHT22;9269;50.838;12.094;2024-03-22T09:27:01;16.40;41.30
18287;DHT22;9269;50.838;12.094;2024-03-22T09:29:30;16.50;40.90
18287;DHT22;9269;50.838;12.094;2024-03-22T09:31:58;16.40;41.20
18287;DHT22;9269;50.838;12.094;2024-03-22T09:34:26;16.40;41.00
18287;DHT22;9269;50.838;12.094;2024-03-22T09:36:54;16.50;40.80
18287;DHT22;9269;50.838;12.094;2024-03-22T09:39:22;16.40;41.00
18287;DHT22;9269;50.838;12.094;2024-03-22T09:41:51;16.50;40.90
18287;DHT22;9269;50.838;12.094;2024-03-22T09:44:19;16.40;40.90
18287;DHT22;9269;50.838;12.094;2024-03-22T09:46:47;16.40;40.30
18287;DHT22;9269;50.838;12.094;2024-03-22T09:49:15;16.50;40.40
18287;DHT22;9269;50.838;12.094;2024-03-22T09:51:44;16.30;39.90
18287;DHT22;9269;50.838;12.094;2024-03-22T09:54:11;16.50;40.00
18287;DHT22;9269;50.838;12.094;2024-03-22T09:56:38;16.40;39.90
18287;DHT22;9269;50.838;12.094;2024-03-22T09:59:06;16.40;40.00
18287;DHT22;9269;50.838;12.094;2024-03-22T10:01:34;16.40;40.20
18287;DHT22;9269;50.838;12.094;2024-03-22T10:04:02;16.50;40.10
18287;DHT22;9269;50.838;12.094;2024-03-22T10:06:29;16.60;40.30
18287;DHT22;9269;50.838;12.094;2024-03-22T10:08:59;16.70;40.10
18287;DHT22;9269;50.838;12.094;2024-03-22T10:11:26;16.80;40.20
18287;DHT22;9269;50.838;12.094;2024-03-22T10:13:54;16.80;40.40
18287;DHT22;9269;50.838;12.094;2024-03-22T10:16:21;16.80;40.10
18287;DHT22;9269;50.838;12.094;2024-03-22T10:18:49;16.80;40.00
18287;DHT22;9269;50.838;12.094;2024-03-22T10:21:17;16.90;40.10
18287;DHT22;9269;50.838;12.094;2024-03-22T10:23:46;16.90;39.80
18287;DHT22;9269;50.838;12.094;2024-03-22T10:26:16;16.90;39.90
18287;DHT22;9269;50.838;12.094;2024-03-22T10:28:47;16.90;39.80
18287;DHT22;9269;50.838;12.094;2024-03-22T10:31:14;17.00;39.90
18287;DHT22;9269;50.838;12.094;2024-03-22T10:33:44;17.00;39.90
18287;DHT22;9269;50.838;12.094;2024-03-22T10:36:11;17.10;39.30
18287;DHT22;9269;50.838;12.094;2024-03-22T10:38:40;17.10;39.50
18287;DHT22;9269;50.838;12.094;2024-03-22T10:41:07;17.20;39.50
18287;DHT22;9269;50.838;12.094;2024-03-22T10:43:37;17.10;39.20
18287;DHT22;9269;50.838;12.094;2024-03-22T10:46:04;17.20;39.20
18287;DHT22;9269;50.838;12.094;2024-03-22T10:48:32;17.40;39.20
18287;DHT22;9269;50.838;12.094;2024-03-22T10:51:00;17.40;39.00
18287;DHT22;9269;50.838;12.094;2024-03-22T10:53:31;17.40;39.30
18287;DHT22;9269;50.838;12.094;2024-03-22T10:55:59;17.40;39.20
18287;DHT22;9269;50.838;12.094;2024-03-22T10:58:29;17.50;39.40
18287;DHT22;9269;50.838;12.094;2024-03-22T11:00:57;17.50;39.20
18287;DHT22;9269;50.838;12.094;2024-03-22T11:03:25;17.60;39.20
18287;DHT22;9269;50.838;12.094;2024-03-22T11:05:54;17.70;38.90
18287;DHT22;9269;50.838;12.094;2024-03-22T11:08:26;17.90;38.80
18287;DHT22;9269;50.838;12.094;2024-03-22T11:10:53;17.90;38.60
18287;DHT22;9269;50.838;12.094;2024-03-22T11:13:21;17.90;38.90
18287;DHT22;9269;50.838;12.094;2024-03-22T11:15:48;17.90;38.30
18287;DHT22;9269;50.838;12.094;2024-03-22T11:18:17;18.00;38.40
18287;DHT22;9269;50.838;12.094;2024-03-22T11:20:44;18.00;38.50
18287;DHT22;9269;50.838;12.094;2024-03-22T11:23:13;18.10;38.50
18287;DHT22;9269;50.838;12.094;2024-03-22T11:25:40;18.20;37.20
18287;DHT22;9269;50.838;12.094;2024-03-22T11:28:07;18.20;37.30
18287;DHT22;9269;50.838;12.094;2024-03-22T11:30:34;18.30;37.00
18287;DHT22;9269;50.838;12.094;2024-03-22T11:33:02;18.30;36.80
18287;DHT22;9269;50.838;12.094;2024-03-22T11:35:30;18.40;36.80
18287;DHT22;9269;50.838;12.094;2024-03-22T11:37:57;18.50;36.80
18287;DHT22;9269;50.838;12.094;2024-03-22T11:40:26;18.60;36.50
18287;DHT22;9269;50.838;12.094;2024-03-22T11:42:55;18.60;36.60
18287;DHT22;9269;50.838;12.094;2024-03-22T11:45:23;18.60;36.30
18287;DHT22;9269;50.838;12.094;2024-03-22T11:47:51;18.70;36.50
18287;DHT22;9269;50.838;12.094;2024-03-22T11:50:18;18.70;36.40
18287;DHT22;9269;50.838;12.094;2024-03-22T11:52:47;18.80;36.70
18287;DHT22;9269;50.838;12.094;2024-03-22T11:55:14;18.90;36.70
18287;DHT22;9269;50.838;12.094;2024-03-22T11:57:48;18.90;36.20
18287;DHT22;9269;50.838;12.094;2024-03-22T12:00:16;18.90;36.30
18287;DHT22;9269;50.838;12.094;2024-03-22T12:02:44;19.00;35.90
18287;DHT22;9269;50.838;12.094;2024-03-22T12:05:11;19.00;36.60
18287;DHT22;9269;50.838;12.094;2024-03-22T12:07:39;19.10;36.30
18287;DHT22;9269;50.838;12.094;2024-03-22T12:10:08;19.10;36.50
18287;DHT22;9269;50.838;12.094;2024-03-22T12:12:36;19.00;36.00
18287;DHT22;9269;50.838;12.094;2024-03-22T12:15:03;19.00;36.30
18287;DHT22;9269;50.838;12.094;2024-03-22T12:17:32;19.00;36.50
18287;DHT22;9269;50.838;12.094;2024-03-22T12:19:59;19.00;36.30
18287;DHT22;9269;50.838;12.094;2024-03-22T12:22:27;19.00;36.20
18287;DHT22;9269;50.838;12.094;2024-03-22T12:24:54;19.00;36.40
18287;DHT22;9269;50.838;12.094;2024-03-22T12:27:23;19.00;36.70
18287;DHT22;9269;50.838;12.094;2024-03-22T12:29:49;19.00;36.70
18287;DHT22;9269;50.838;12.094;2024-03-22T12:32:16;19.00;36.60
18287;DHT22;9269;50.838;12.094;2024-03-22T12:34:43;19.00;36.60
18287;DHT22;9269;50.838;12.094;2024-03-22T12:37:11;18.90;36.40
18287;DHT22;9269;50.838;12.094;2024-03-22T12:39:37;18.80;36.40
18287;DHT22;9269;50.838;12.094;2024-03-22T12:42:05;18.80;36.50
18287;DHT22;9269;50.838;12.094;2024-03-22T12:44:33;18.90;36.40
18287;DHT22;9269;50.838;12.094;2024-03-22T12:47:01;18.80;36.60
18287;DHT22;9269;50.838;12.094;2024-03-22T12:49:27;18.80;36.60
18287;DHT22;9269;50.838;12.094;2024-03-22T12:51:55;18.80;36.70
18287;DHT22;9269;50.838;12.094;2024-03-22T12:54:23;18.70;36.60
18287;DHT22;9269;50.838;12.094;2024-03-22T12:56:51;18.70;36.60
18287;DHT22;9269;50.838;12.094;2024-03-22T12:59:18;18.70;36.80
18287;DHT22;9269;50.838;12.094;2024-03-22T13:01:46;18.70;36.30
18287;DHT22;9269;50.838;12.094;2024-03-22T13:04:13;18.70;36.90
18287;DHT22;9269;50.838;12.094;2024-03-22T13:06:41;18.50;37.10
18287;DHT22;9269;50.838;12.094;2024-03-22T13:09:07;18.60;36.80
18287;DHT22;9269;50.838;12.094;2024-03-22T13:11:35;18.50;37.00
18287;DHT22;9269;50.838;12.094;2024-03-22T13:14:02;18.40;37.30
18287;DHT22;9269;50.838;12.094;2024-03-22T13:16:29;18.40;36.90
18287;DHT22;9269;50.838;12.094;2024-03-22T13:19:00;18.40;36.90
18287;DHT22;9269;50.838;12.094;2024-03-22T13:21:28;18.40;36.90
18287;DHT22;9269;50.838;12.094;2024-03-22T13:23:54;18.50;36.90
18287;DHT22;9269;50.838;12.094;2024-03-22T13:26:22;18.40;36.90
18287;DHT22;9269;50.838;12.094;2024-03-22T13:28:48;18.40;36.60
18287;DHT22;9269;50.838;12.094;2024-03-22T13:31:16;18.40;37.10
18287;DHT22;9269;50.838;12.094;2024-03-22T13:33:42;18.40;37.00
18287;DHT22;9269;50.838;12.094;2024-03-22T13:36:11;18.50;37.10
18287;DHT22;9269;50.838;12.094;2024-03-22T13:38:38;18.50;37.20
18287;DHT22;9269;50.838;12.094;2024-03-22T13:41:05;18.60;37.30
18287;DHT22;9269;50.838;12.094;2024-03-22T13:43:32;18.60;37.10
18287;DHT22;9269;50.838;12.094;2024-03-22T13:46:00;18.60;37.20
18287;DHT22;9269;50.838;12.094;2024-03-22T13:48:27;18.70;37.40
18287;DHT22;9269;50.838;12.094;2024-03-22T13:50:55;18.60;38.10
18287;DHT22;9269;50.838;12.094;2024-03-22T13:53:23;18.70;37.90
18287;DHT22;9269;50.838;12.094;2024-03-22T13:55:51;18.80;37.80
18287;DHT22;9269;50.838;12.094;2024-03-22T13:58:19;18.80;37.90
18287;DHT22;9269;50.838;12.094;2024-03-22T14:00:46;18.80;38.00
18287;DHT22;9269;50.838;12.094;2024-03-22T14:03:13;19.00;38.50
18287;DHT22;9269;50.838;12.094;2024-03-22T14:05:40;19.00;38.10
18287;DHT22;9269;50.838;12.094;2024-03-22T14:08:07;19.00;38.40
18287;DHT22;9269;50.838;12.094;2024-03-22T14:10:36;19.00;38.50
18287;DHT22;9269;50.838;12.094;2024-03-22T14:13:03;19.00;38.20
18287;DHT22;9269;50.838;12.094;2024-03-22T14:15:34;19.00;38.20
18287;DHT22;9269;50.838;12.094;2024-03-22T14:18:01;19.00;38.30
18287;DHT22;9269;50.838;12.094;2024-03-22T14:20:29;19.00;38.50
18287;DHT22;9269;50.838;12.094;2024-03-22T14:22:56;19.00;38.40
18287;DHT22;9269;50.838;12.094;2024-03-22T14:25:23;19.00;38.40
18287;DHT22;9269;50.838;12.094;2024-03-22T14:27:51;18.90;38.20
18287;DHT22;9269;50.838;12.094;2024-03-22T14:30:19;18.80;38.30
18287;DHT22;9269;50.838;12.094;2024-03-22T14:32:46;18.80;38.40
18287;DHT22;9269;50.838;12.094;2024-03-22T14:35:13;18.80;38.20
18287;DHT22;9269;50.838;12.094;2024-03-22T14:37:39;18.80;38.30
18287;DHT22;9269;50.838;12.094;2024-03-22T14:40:08;18.60;38.10
18287;DHT22;9269;50.838;12.094;2024-03-22T14:42:37;18.60;38.20
18287;DHT22;9269;50.838;12.094;2024-03-22T14:45:06;18.60;38.20
18287;DHT22;9269;50.838;12.094;2024-03-22T14:47:35;18.60;38.30
18287;DHT22;9269;50.838;12.094;2024-03-22T14:50:03;18.60;38.00
18287;DHT22;9269;50.838;12.094;2024-03-22T14:52:30;18.50;37.70
18287;DHT22;9269;50.838;12.094;2024-03-22T14:54:57;18.50;37.50
18287;DHT22;9269;50.838;12.094;2024-03-22T14:57:23;18.30;37.70
18287;DHT22;9269;50.838;12.094;2024-03-22T14:59:51;18.40;37.80
18287;DHT22;9269;50.838;12.094;2024-03-22T15:02:20;18.30;37.80
18287;DHT22;9269;50.838;12.094;2024-03-22T15:04:47;18.30;37.60
18287;DHT22;9269;50.838;12.094;2024-03-22T15:07:14;18.30;37.60
18287;DHT22;9269;50.838;12.094;2024-03-22T15:09:43;18.30;37.60
18287;DHT22;9269;50.838;12.094;2024-03-22T15:12:09;18.30;37.90
18287;DHT22;9269;50.838;12.094;2024-03-22T15:14:37;18.30;37.50
18287;DHT22;9269;50.838;12.094;2024-03-22T15:17:03;18.20;37.90
18287;DHT22;9269;50.838;12.094;2024-03-22T15:19:32;18.20;37.60
18287;DHT22;9269;50.838;12.094;2024-03-22T15:21:59;18.20;37.90
18287;DHT22;9269;50.838;12.094;2024-03-22T15:24:26;18.20;37.80
18287;DHT22;9269;50.838;12.094;2024-03-22T15:26:53;18.20;37.60
18287;DHT22;9269;50.838;12.094;2024-03-22T15:29:21;18.20;37.80
18287;DHT22;9269;50.838;12.094;2024-03-22T15:31:48;18.10;39.20
18287;DHT22;9269;50.838;12.094;2024-03-22T15:34:16;18.20;38.00